createdAt,value
2022-09-14T05:01:44.213Z,87.09
2022-09-14T05:04:13.450Z,87.03
2022-09-14T05:06:44.629Z,86.88
2022-09-14T05:09:19.073Z,86.63
2022-09-14T05:11:49.994Z,86.25
2022-09-14T05:14:20.319Z,86.28
2022-09-14T05:16:48.941Z,86.46
2022-09-14T05:19:18.939Z,86.59
2022-09-14T05:21:48.153Z,86.50
2022-09-14T05:24:19.589Z,86.49
2022-09-14T05:26:48.810Z,86.39
2022-09-14T05:29:19.710Z,86.58
2022-09-14T05:31:48.850Z,86.88
2022-09-14T05:34:18.991Z,86.97
2022-09-14T05:36:47.862Z,86.94
2022-09-14T05:39:21.095Z,86.85
2022-09-14T05:41:52.709Z,86.69
2022-09-14T05:44:21.489Z,86.57
2022-09-14T05:46:50.246Z,86.44
2022-09-14T05:49:19.269Z,86.27
2022-09-14T05:51:47.984Z,86.14
2022-09-14T05:54:16.741Z,86.15
2022-09-14T05:56:45.752Z,86.03
2022-09-14T05:59:14.650Z,85.99
2022-09-14T06:01:43.599Z,85.85
2022-09-14T06:04:13.031Z,85.69
2022-09-14T06:06:46.928Z,85.57
2022-09-14T06:09:24.949Z,85.55
2022-09-14T06:11:53.630Z,85.55
2022-09-14T06:14:22.431Z,85.60
2022-09-14T06:16:51.225Z,85.61
2022-09-14T06:19:20.090Z,85.53
2022-09-14T06:21:49.089Z,85.43
2022-09-14T06:24:17.889Z,85.20
2022-09-14T06:26:46.575Z,85.02
2022-09-14T06:29:15.449Z,84.95
2022-09-14T06:31:44.354Z,84.77
2022-09-14T06:34:13.090Z,84.51
2022-09-14T06:36:41.829Z,84.40
2022-09-14T06:39:11.440Z,84.22
2022-09-14T06:41:40.110Z,83.83
2022-09-14T06:44:08.909Z,83.61
2022-09-14T06:46:37.689Z,83.62
2022-09-14T06:49:11.771Z,83.46
2022-09-14T06:51:44.233Z,83.10
2022-09-14T06:54:18.295Z,82.86
2022-09-14T06:56:47.549Z,82.86
2022-09-14T06:59:18.203Z,82.37
2022-09-14T07:01:50.391Z,81.96
2022-09-14T07:04:19.715Z,81.71
2022-09-14T07:06:50.630Z,81.55
2022-09-14T07:09:21.052Z,81.30
2022-09-14T07:11:49.848Z,81.06
2022-09-14T07:14:20.550Z,80.60
2022-09-14T07:16:49.700Z,79.79
2022-09-14T07:19:18.849Z,79.57
2022-09-14T07:21:49.028Z,79.02
2022-09-14T07:24:18.050Z,78.79
2022-09-14T07:26:46.807Z,78.14
2022-09-14T07:29:20.459Z,77.89
2022-09-14T07:31:54.810Z,77.42
2022-09-14T07:34:24.510Z,76.65
2022-09-14T07:36:53.301Z,76.20
2022-09-14T07:39:22.291Z,75.87
2022-09-14T07:41:51.189Z,75.58
2022-09-14T07:44:20.190Z,75.23
2022-09-14T07:46:48.989Z,75.64
2022-09-14T07:49:18.616Z,74.86
2022-09-14T07:51:47.369Z,73.75
2022-09-14T07:54:18.710Z,72.42
2022-09-14T07:56:51.189Z,71.25
2022-09-14T07:59:37.165Z,71.01
2022-09-14T08:02:12.227Z,71.43
2022-09-14T08:04:40.898Z,70.79
2022-09-14T08:07:10.175Z,70.48
2022-09-14T08:09:39.953Z,70.75
2022-09-14T08:12:08.702Z,69.52
2022-09-14T08:14:37.701Z,69.26
2022-09-14T08:17:06.382Z,68.87
2022-09-14T08:19:35.970Z,68.21
2022-09-14T08:22:05.589Z,68.81
2022-09-14T08:24:34.212Z,69.00
2022-09-14T08:27:02.782Z,68.71
2022-09-14T08:29:31.550Z,69.25
2022-09-14T08:32:00.405Z,69.37
2022-09-14T08:34:29.430Z,69.00
2022-09-14T08:36:58.337Z,68.37
2022-09-14T08:39:27.229Z,67.80
2022-09-14T08:42:00.539Z,67.71
2022-09-14T08:44:49.366Z,67.87
2022-09-14T08:47:34.722Z,67.17
2022-09-14T08:50:20.391Z,67.00
2022-09-14T08:52:55.752Z,66.71
2022-09-14T08:55:49.152Z,66.66
2022-09-14T08:58:48.971Z,66.90
2022-09-14T09:01:43.789Z,66.76
2022-09-14T09:04:56.572Z,67.28
2022-09-14T09:07:49.502Z,66.67
2022-09-14T09:10:19.331Z,66.02
2022-09-14T09:13:01.951Z,66.54
2022-09-14T09:15:40.480Z,66.52
2022-09-14T09:18:19.442Z,66.44
2022-09-14T09:21:04.551Z,66.18
2022-09-14T09:23:35.669Z,66.25
2022-09-14T09:26:06.871Z,66.04
2022-09-14T09:28:41.691Z,66.45
2022-09-14T09:31:15.472Z,66.26
2022-09-14T09:33:51.160Z,65.74
2022-09-14T09:36:20.589Z,65.74
2022-09-14T09:38:49.257Z,66.13
2022-09-14T09:41:26.061Z,65.61
2022-09-14T09:44:09.861Z,65.76
2022-09-14T09:46:41.184Z,65.15
2022-09-14T09:49:26.990Z,65.56
2022-09-14T09:51:56.921Z,65.64
2022-09-14T09:54:32.830Z,64.94
2022-09-14T09:57:07.390Z,64.69
2022-09-14T09:59:41.493Z,65.08
2022-09-14T10:02:32.678Z,64.25
2022-09-14T10:05:29.329Z,64.19
2022-09-14T10:08:10.768Z,63.97
2022-09-14T10:10:45.018Z,63.87
2022-09-14T10:13:35.353Z,63.80
2022-09-14T10:16:30.625Z,63.78
2022-09-14T10:19:03.251Z,63.85
2022-09-14T10:21:32.351Z,63.98
2022-09-14T10:24:18.020Z,64.53
2022-09-14T10:26:46.708Z,64.32
2022-09-14T10:29:45.090Z,64.14
2022-09-14T10:32:26.062Z,64.07
2022-09-14T10:34:54.852Z,64.66
2022-09-14T10:38:06.341Z,64.68
2022-09-14T10:40:45.780Z,64.55
2022-09-14T10:43:31.072Z,64.28
2022-09-14T10:46:05.754Z,64.21
2022-09-14T10:48:59.149Z,64.26
2022-09-14T10:51:53.341Z,64.32
2022-09-14T10:55:04.722Z,64.48
2022-09-14T10:58:00.990Z,64.79
2022-09-14T11:00:56.792Z,64.48
2022-09-14T11:03:45.237Z,64.86
2022-09-14T11:06:20.460Z,64.83
2022-09-14T11:09:02.109Z,65.06
2022-09-14T11:12:08.841Z,64.94
2022-09-14T11:15:09.581Z,64.76
2022-09-14T11:18:14.811Z,64.54
2022-09-14T11:21:06.129Z,64.06
2022-09-14T11:23:48.094Z,64.19
2022-09-14T11:26:32.397Z,64.02
2022-09-14T11:29:34.429Z,64.20
2022-09-14T11:32:23.389Z,63.74
2022-09-14T11:35:18.929Z,63.88
2022-09-14T11:37:50.075Z,64.33
2022-09-14T11:40:29.881Z,64.52
2022-09-14T11:43:15.889Z,64.42
2022-09-14T11:45:53.618Z,64.34
2022-09-14T11:48:44.828Z,63.75
2022-09-14T11:51:22.901Z,63.74
2022-09-14T11:53:52.774Z,63.91
2022-09-14T11:56:29.730Z,63.41
2022-09-14T11:59:07.926Z,63.16
2022-09-14T12:01:38.159Z,63.48
2022-09-14T12:04:17.018Z,63.27
2022-09-14T12:06:50.450Z,63.25
2022-09-14T12:09:38.930Z,63.78
2022-09-14T12:12:33.323Z,64.31
2022-09-14T12:15:03.839Z,64.59
2022-09-14T12:17:39.931Z,64.60
2022-09-14T12:20:50.842Z,63.89
2022-09-14T12:23:38.219Z,64.22
2022-09-14T12:26:07.008Z,63.82
2022-09-14T12:28:36.509Z,64.16
2022-09-14T12:31:13.692Z,64.18
2022-09-14T12:33:44.441Z,64.05
2022-09-14T12:36:22.230Z,64.02
2022-09-14T12:38:50.917Z,64.31
2022-09-14T12:41:19.811Z,64.85
2022-09-14T12:43:55.730Z,64.84
2022-09-14T12:46:24.285Z,64.56
2022-09-14T12:49:38.610Z,64.90
2022-09-14T12:52:27.981Z,65.08
2022-09-14T12:55:21.577Z,65.28
2022-09-14T12:58:25.489Z,65.64
2022-09-14T13:01:45.760Z,65.50
2022-09-14T13:04:33.491Z,65.87
2022-09-14T13:07:13.140Z,65.45
2022-09-14T13:09:50.362Z,65.01
2022-09-14T13:12:37.054Z,64.85
2022-09-14T13:15:27.431Z,64.80
2022-09-14T13:17:58.508Z,64.15
2022-09-14T13:20:28.637Z,63.83
2022-09-14T13:22:58.589Z,63.96
2022-09-14T13:25:38.329Z,64.34
2022-09-14T13:28:17.173Z,64.25
2022-09-14T13:30:57.074Z,64.19
2022-09-14T13:33:26.309Z,64.62
2022-09-14T13:36:00.428Z,64.91
2022-09-14T13:38:38.132Z,65.38
2022-09-14T13:41:19.753Z,65.61
2022-09-14T13:43:50.595Z,66.21
2022-09-14T13:46:20.707Z,66.35
2022-09-14T13:48:50.863Z,66.74
2022-09-14T13:51:29.905Z,66.79
2022-09-14T13:54:36.834Z,66.61
2022-09-14T13:57:26.311Z,66.50
2022-09-14T14:00:23.214Z,66.45
2022-09-14T14:03:03.458Z,66.39
2022-09-14T14:05:41.689Z,66.45
2022-09-14T14:08:46.735Z,65.99
2022-09-14T14:11:31.775Z,65.63
2022-09-14T14:14:16.889Z,66.54
2022-09-14T14:17:22.956Z,65.93
2022-09-14T14:19:56.366Z,64.86
2022-09-14T14:22:33.989Z,65.34
2022-09-14T14:25:20.408Z,66.47
2022-09-14T14:27:49.439Z,66.51
2022-09-14T14:30:23.596Z,66.97
2022-09-14T14:32:55.228Z,67.14
2022-09-14T14:35:28.548Z,67.44
2022-09-14T14:37:58.108Z,67.48
2022-09-14T14:40:28.203Z,67.88
2022-09-14T14:42:59.448Z,68.48
2022-09-14T14:45:28.550Z,68.16
2022-09-14T14:47:58.937Z,68.72
2022-09-14T14:50:34.361Z,68.94
2022-09-14T14:53:05.589Z,69.66
2022-09-14T14:55:37.721Z,70.40
2022-09-14T14:58:14.529Z,70.90
2022-09-14T15:00:44.023Z,70.84
2022-09-14T15:03:13.076Z,70.85
2022-09-14T15:05:46.726Z,71.20
2022-09-14T15:08:20.243Z,71.77
2022-09-14T15:10:55.368Z,72.09
2022-09-14T15:13:24.177Z,72.08
2022-09-14T15:15:52.909Z,71.98
2022-09-14T15:18:21.829Z,72.02
2022-09-14T15:20:50.833Z,72.27
2022-09-14T15:23:19.508Z,72.52
2022-09-14T15:25:52.189Z,72.74
2022-09-14T15:28:23.193Z,72.85
2022-09-14T15:30:52.748Z,73.06
2022-09-14T15:33:21.687Z,73.31
2022-09-14T15:35:57.314Z,73.35
2022-09-14T15:38:27.180Z,73.65
2022-09-14T15:40:56.128Z,73.89
2022-09-14T15:43:25.087Z,73.94
2022-09-14T15:45:54.373Z,74.29
2022-09-14T15:48:26.291Z,74.74
2022-09-14T15:50:56.268Z,74.83
2022-09-14T15:53:25.261Z,75.11
2022-09-14T15:55:54.257Z,75.53
2022-09-14T15:58:23.140Z,76.03
2022-09-14T16:00:51.994Z,76.00
2022-09-14T16:03:20.829Z,75.74
2022-09-14T16:05:49.728Z,75.60
2022-09-14T16:08:19.327Z,75.50
2022-09-14T16:10:48.869Z,76.02
2022-09-14T16:13:17.621Z,76.45
2022-09-14T16:15:46.808Z,77.13
2022-09-14T16:18:15.409Z,77.87
2022-09-14T16:20:44.289Z,77.84
2022-09-14T16:23:13.289Z,78.17
2022-09-14T16:25:42.069Z,78.78
2022-09-14T16:28:11.069Z,79.11
2022-09-14T16:30:39.849Z,79.59
2022-09-14T16:33:08.534Z,79.70
2022-09-14T16:35:37.529Z,79.99
2022-09-14T16:38:06.429Z,80.12
2022-09-14T16:40:35.255Z,80.29
2022-09-14T16:43:04.417Z,80.41
2022-09-14T16:45:33.258Z,80.54
2022-09-14T16:48:02.869Z,80.62
2022-09-14T16:50:31.812Z,80.45
2022-09-14T16:53:00.688Z,80.65
2022-09-14T16:55:31.532Z,81.04
2022-09-14T16:58:00.530Z,81.08
2022-09-14T17:00:29.468Z,81.27
2022-09-14T17:02:58.709Z,81.41
2022-09-14T17:05:27.508Z,81.46
2022-09-14T17:07:56.291Z,81.48
2022-09-14T17:10:25.091Z,81.56
2022-09-14T17:12:54.193Z,81.51
2022-09-14T17:15:23.480Z,81.78
2022-09-14T17:17:52.168Z,82.09
2022-09-14T17:20:21.072Z,82.21
2022-09-14T17:22:50.149Z,82.28
2022-09-14T17:25:19.041Z,81.96
2022-09-14T17:27:48.026Z,81.75
2022-09-14T17:30:17.948Z,81.72
2022-09-14T17:32:46.848Z,81.71
2022-09-14T17:35:16.149Z,81.60
2022-09-14T17:37:45.021Z,81.78
2022-09-14T17:40:14.396Z,82.15
2022-09-14T17:42:43.228Z,82.39
2022-09-14T17:45:12.830Z,82.46
2022-09-14T17:47:41.646Z,82.35
2022-09-14T17:50:10.809Z,82.52
2022-09-14T17:52:39.929Z,82.71
2022-09-14T17:55:09.348Z,82.64
2022-09-14T17:57:38.209Z,82.88
2022-09-14T18:00:08.250Z,83.28
2022-09-14T18:02:37.201Z,83.31
2022-09-14T18:05:06.229Z,83.44
2022-09-14T18:07:35.230Z,83.43
2022-09-14T18:10:04.729Z,83.20
2022-09-14T18:12:36.789Z,83.25
2022-09-14T18:15:06.909Z,83.44
2022-09-14T18:17:35.890Z,83.27
2022-09-14T18:20:06.608Z,83.63
2022-09-14T18:22:39.229Z,84.15
2022-09-14T18:25:09.958Z,84.62
2022-09-14T18:27:38.829Z,84.61
2022-09-14T18:30:08.931Z,84.40
2022-09-14T18:32:37.648Z,84.61
2022-09-14T18:35:07.649Z,84.56
2022-09-14T18:37:37.088Z,84.48
2022-09-14T18:40:06.702Z,84.27
2022-09-14T18:42:35.446Z,84.31
2022-09-14T18:45:04.870Z,84.38
2022-09-14T18:47:33.751Z,84.29
2022-09-14T18:50:02.528Z,84.23
2022-09-14T18:52:31.428Z,84.28
2022-09-14T18:55:00.333Z,84.59
2022-09-14T18:57:29.112Z,84.56
2022-09-14T18:59:57.689Z,84.45
2022-09-14T19:02:26.712Z,84.59
2022-09-14T19:04:55.990Z,84.78
2022-09-14T19:07:26.931Z,84.95
2022-09-14T19:09:57.451Z,84.84
2022-09-14T19:12:26.354Z,84.81
2022-09-14T19:14:55.657Z,84.98
2022-09-14T19:17:24.649Z,85.26
2022-09-14T19:19:53.757Z,85.13
2022-09-14T19:22:22.628Z,84.95
2022-09-14T19:24:51.530Z,85.16
2022-09-14T19:27:20.828Z,85.30
2022-09-14T19:29:49.909Z,85.41
2022-09-14T19:32:19.828Z,85.21
2022-09-14T19:34:49.750Z,85.39
2022-09-14T19:37:18.529Z,85.58
2022-09-14T19:39:47.264Z,85.60
2022-09-14T19:42:16.017Z,85.69
2022-09-14T19:44:44.709Z,85.63
2022-09-14T19:47:13.497Z,85.54
2022-09-14T19:49:42.590Z,85.61
2022-09-14T19:52:11.369Z,85.32
2022-09-14T19:54:40.250Z,85.39
2022-09-14T19:57:09.148Z,85.51
2022-09-14T19:59:38.650Z,85.88
2022-09-14T20:02:11.630Z,86.21
2022-09-14T20:04:41.156Z,86.21
2022-09-14T20:07:10.050Z,85.95
2022-09-14T20:09:39.248Z,85.86
2022-09-14T20:12:08.329Z,85.83
2022-09-14T20:14:37.628Z,85.80
2022-09-14T20:17:07.049Z,85.97
2022-09-14T20:19:36.848Z,86.03
2022-09-14T20:22:05.850Z,86.25
2022-09-14T20:24:36.369Z,86.56
2022-09-14T20:27:05.289Z,86.77
2022-09-14T20:29:35.740Z,86.78
2022-09-14T20:32:06.429Z,86.66
2022-09-14T20:34:35.117Z,86.35
2022-09-14T20:37:04.208Z,86.15
2022-09-14T20:39:36.491Z,86.10
2022-09-14T20:42:06.350Z,85.99
2022-09-14T20:44:35.098Z,85.96
2022-09-14T20:47:04.189Z,86.14
2022-09-14T20:49:33.229Z,86.12
2022-09-14T20:52:03.349Z,86.11
2022-09-14T20:54:32.209Z,86.14
2022-09-14T20:57:04.517Z,86.20
2022-09-14T20:59:34.169Z,86.12
2022-09-14T21:02:05.571Z,86.24
2022-09-14T21:04:36.231Z,86.52
2022-09-14T21:07:06.054Z,86.51
2022-09-14T21:09:35.969Z,86.78
2022-09-14T21:12:05.269Z,86.85
2022-09-14T21:14:34.071Z,86.68
2022-09-14T21:17:02.651Z,86.49
2022-09-14T21:19:31.749Z,86.55
2022-09-14T21:22:00.432Z,86.47
2022-09-14T21:24:31.473Z,86.51
2022-09-14T21:27:00.177Z,86.58
2022-09-14T21:29:28.957Z,86.73
2022-09-14T21:31:57.738Z,86.70
2022-09-14T21:34:26.928Z,86.70
2022-09-14T21:36:55.631Z,86.70
2022-09-14T21:39:27.535Z,86.67
2022-09-14T21:41:59.701Z,86.58
2022-09-14T21:44:34.912Z,86.53
2022-09-14T21:47:05.129Z,86.64
2022-09-14T21:49:34.011Z,86.74
2022-09-14T21:52:04.250Z,86.70
2022-09-14T21:54:33.009Z,86.80
2022-09-14T21:57:01.809Z,86.87
